sensor_id;sensor_type;location;lat;lon;timestamp;pressure;altitude;pressure_sealevel;temperature;humidity
72124;BME280;63818;37.134;-8.548;2022-12-17T00:02:03;101307.9;;;15.3;85.9
72124;BME280;63818;37.134;-8.548;2022-12-17T00:06:52;101302.2;;;15.3;86.0
72124;BME280;63818;37.134;-8.548;2022-12-17T00:11:40;101301.4;;;15.3;85.9
72124;BME280;63818;37.134;-8.548;2022-12-17T00:16:32;101291.6;;;15.2;85.6
72124;BME280;63818;37.134;-8.548;2022-12-17T00:21:23;101291.4;;;15.2;86.0
72124;BME280;63818;37.134;-8.548;2022-12-17T00:26:15;101294.0;;;15.2;85.5
72124;BME280;63818;37.134;-8.548;2022-12-17T00:31:08;101297.3;;;15.1;85.5
72124;BME280;63818;37.134;-8.548;2022-12-17T00:35:56;101288.3;;;15.1;85.8
72124;BME280;63818;37.134;-8.548;2022-12-17T00:40:49;101281.2;;;15.1;85.9
72124;BME280;63818;37.134;-8.548;2022-12-17T00:45:37;101269.9;;;15.1;85.9
72124;BME280;63818;37.134;-8.548;2022-12-17T00:50:25;101276.2;;;15.1;85.8
72124;BME280;63818;37.134;-8.548;2022-12-17T00:55:15;101277.1;;;15.0;85.5
72124;BME280;63818;37.134;-8.548;2022-12-17T01:00:03;101282.7;;;15.0;85.8
72124;BME280;63818;37.134;-8.548;2022-12-17T01:04:52;101276.5;;;15.0;85.8
72124;BME280;63818;37.134;-8.548;2022-12-17T01:09:41;101278.6;;;14.9;85.4
72124;BME280;63818;37.134;-8.548;2022-12-17T01:14:32;101267.2;;;14.9;85.5
72124;BME280;63818;37.134;-8.548;2022-12-17T01:19:20;101274.8;;;14.8;85.3
72124;BME280;63818;37.134;-8.548;2022-12-17T01:24:12;101295.5;;;14.7;86.2
72124;BME280;63818;37.134;-8.548;2022-12-17T01:29:02;101294.9;;;14.8;85.4
72124;BME280;63818;37.134;-8.548;2022-12-17T01:33:51;101285.5;;;14.7;85.1
72124;BME280;63818;37.134;-8.548;2022-12-17T01:38:40;101287.1;;;14.6;85.4
72124;BME280;63818;37.134;-8.548;2022-12-17T01:43:32;101265.0;;;14.6;85.2
72124;BME280;63818;37.134;-8.548;2022-12-17T01:48:23;101272.6;;;14.7;85.1
72124;BME280;63818;37.134;-8.548;2022-12-17T01:53:16;101265.6;;;14.8;85.2
72124;BME280;63818;37.134;-8.548;2022-12-17T01:58:09;101265.9;;;14.8;85.0
72124;BME280;63818;37.134;-8.548;2022-12-17T02:02:58;101283.4;;;14.6;83.9
72124;BME280;63818;37.134;-8.548;2022-12-17T02:07:52;101286.5;;;14.6;83.7
72124;BME280;63818;37.134;-8.548;2022-12-17T02:12:46;101293.4;;;14.6;83.7
72124;BME280;63818;37.134;-8.548;2022-12-17T02:17:40;101306.5;;;14.7;83.8
72124;BME280;63818;37.134;-8.548;2022-12-17T02:22:36;101307.9;;;14.6;83.9
72124;BME280;63818;37.134;-8.548;2022-12-17T02:27:28;101313.3;;;14.6;84.0
72124;BME280;63818;37.134;-8.548;2022-12-17T02:32:18;101314.5;;;14.6;83.8
72124;BME280;63818;37.134;-8.548;2022-12-17T02:37:07;101321.1;;;14.6;83.7
72124;BME280;63818;37.134;-8.548;2022-12-17T02:42:01;101323.4;;;14.6;83.8
72124;BME280;63818;37.134;-8.548;2022-12-17T02:46:51;101319.5;;;14.6;83.8
72124;BME280;63818;37.134;-8.548;2022-12-17T02:51:41;101321.0;;;14.5;83.3
72124;BME280;63818;37.134;-8.548;2022-12-17T02:56:31;101322.6;;;14.6;83.7
72124;BME280;63818;37.134;-8.548;2022-12-17T03:01:22;101318.3;;;14.5;83.6
72124;BME280;63818;37.134;-8.548;2022-12-17T03:06:10;101328.9;;;14.5;83.2
72124;BME280;63818;37.134;-8.548;2022-12-17T03:11:01;101337.8;;;14.4;83.6
72124;BME280;63818;37.134;-8.548;2022-12-17T03:15:49;101337.1;;;14.4;83.5
72124;BME280;63818;37.134;-8.548;2022-12-17T03:20:40;101336.3;;;14.4;83.7
72124;BME280;63818;37.134;-8.548;2022-12-17T03:25:29;101351.7;;;14.4;83.5
72124;BME280;63818;37.134;-8.548;2022-12-17T03:30:18;101351.8;;;14.4;83.9
72124;BME280;63818;37.134;-8.548;2022-12-17T03:35:07;101362.3;;;14.4;83.5
72124;BME280;63818;37.134;-8.548;2022-12-17T03:39:58;101366.9;;;14.4;83.2
72124;BME280;63818;37.134;-8.548;2022-12-17T03:44:47;101351.5;;;14.3;83.5
72124;BME280;63818;37.134;-8.548;2022-12-17T03:49:38;101354.0;;;14.2;83.5
72124;BME280;63818;37.134;-8.548;2022-12-17T03:54:26;101364.0;;;14.2;83.9
72124;BME280;63818;37.134;-8.548;2022-12-17T03:59:15;101355.3;;;14.3;84.0
72124;BME280;63818;37.134;-8.548;2022-12-17T04:04:07;101363.5;;;14.3;83.8
72124;BME280;63818;37.134;-8.548;2022-12-17T04:08:55;101357.3;;;14.3;83.7
72124;BME280;63818;37.134;-8.548;2022-12-17T04:13:44;101361.2;;;14.3;83.7
72124;BME280;63818;37.134;-8.548;2022-12-17T04:18:32;101363.9;;;14.3;83.7
72124;BME280;63818;37.134;-8.548;2022-12-17T04:23:21;101356.1;;;14.3;83.3
72124;BME280;63818;37.134;-8.548;2022-12-17T04:28:09;101366.4;;;14.3;82.8
72124;BME280;63818;37.134;-8.548;2022-12-17T04:32:58;101360.0;;;14.1;82.9
72124;BME280;63818;37.134;-8.548;2022-12-17T04:37:46;101360.8;;;14.1;83.1
72124;BME280;63818;37.134;-8.548;2022-12-17T04:42:35;101378.4;;;14.0;83.6
72124;BME280;63818;37.134;-8.548;2022-12-17T04:47:27;101381.0;;;14.0;83.9
72124;BME280;63818;37.134;-8.548;2022-12-17T04:52:21;101378.4;;;14.0;83.4
72124;BME280;63818;37.134;-8.548;2022-12-17T04:57:11;101385.4;;;13.9;83.1
72124;BME280;63818;37.134;-8.548;2022-12-17T05:02:00;101385.1;;;13.9;83.9
72124;BME280;63818;37.134;-8.548;2022-12-17T05:06:48;101386.5;;;13.9;83.3
72124;BME280;63818;37.134;-8.548;2022-12-17T05:13:09;101395.9;;;14.0;82.8
72124;BME280;63818;37.134;-8.548;2022-12-17T05:18:05;101403.0;;;13.9;82.7
72124;BME280;63818;37.134;-8.548;2022-12-17T05:22:54;101403.5;;;13.9;82.6
72124;BME280;63818;37.134;-8.548;2022-12-17T05:28:03;101416.4;;;13.9;82.9
72124;BME280;63818;37.134;-8.548;2022-12-17T05:32:59;101416.6;;;13.9;82.9
72124;BME280;63818;37.134;-8.548;2022-12-17T05:37:48;101420.7;;;13.9;82.6
72124;BME280;63818;37.134;-8.548;2022-12-17T05:45:07;101419.9;;;13.9;83.3
72124;BME280;63818;37.134;-8.548;2022-12-17T05:49:52;101414.1;;;13.8;83.0
72124;BME280;63818;37.134;-8.548;2022-12-17T05:54:40;101426.0;;;13.8;83.5
72124;BME280;63818;37.134;-8.548;2022-12-17T05:59:28;101427.5;;;13.8;83.4
72124;BME280;63818;37.134;-8.548;2022-12-17T06:04:17;101436.9;;;13.8;84.2
72124;BME280;63818;37.134;-8.548;2022-12-17T06:09:08;101449.2;;;13.8;83.6
72124;BME280;63818;37.134;-8.548;2022-12-17T06:13:57;101456.9;;;13.8;83.7
72124;BME280;63818;37.134;-8.548;2022-12-17T06:18:45;101440.2;;;13.8;83.9
72124;BME280;63818;37.134;-8.548;2022-12-17T06:23:34;101451.6;;;13.8;83.6
72124;BME280;63818;37.134;-8.548;2022-12-17T06:28:23;101465.0;;;13.8;83.6
72124;BME280;63818;37.134;-8.548;2022-12-17T06:33:11;101469.9;;;13.8;83.5
72124;BME280;63818;37.134;-8.548;2022-12-17T06:38:02;101483.4;;;13.8;83.6
72124;BME280;63818;37.134;-8.548;2022-12-17T06:42:55;101485.3;;;13.8;83.6
72124;BME280;63818;37.134;-8.548;2022-12-17T06:47:44;101504.0;;;13.7;83.5
72124;BME280;63818;37.134;-8.548;2022-12-17T06:52:33;101508.6;;;13.7;83.2
72124;BME280;63818;37.134;-8.548;2022-12-17T06:57:21;101504.9;;;13.7;83.6
72124;BME280;63818;37.134;-8.548;2022-12-17T07:02:10;101521.7;;;13.7;83.3
72124;BME280;63818;37.134;-8.548;2022-12-17T07:07:00;101530.3;;;13.6;83.7
72124;BME280;63818;37.134;-8.548;2022-12-17T07:11:48;101538.4;;;13.6;84.1
72124;BME280;63818;37.134;-8.548;2022-12-17T07:16:37;101549.0;;;13.6;84.1
72124;BME280;63818;37.134;-8.548;2022-12-17T07:21:26;101548.8;;;13.7;84.0
72124;BME280;63818;37.134;-8.548;2022-12-17T07:26:14;101560.6;;;13.7;83.8
72124;BME280;63818;37.134;-8.548;2022-12-17T07:31:03;101549.2;;;13.6;84.0
72124;BME280;63818;37.134;-8.548;2022-12-17T07:35:53;101559.2;;;13.6;84.5
72124;BME280;63818;37.134;-8.548;2022-12-17T07:40:43;101567.3;;;13.6;84.5
72124;BME280;63818;37.134;-8.548;2022-12-17T07:45:32;101574.5;;;13.6;84.6
72124;BME280;63818;37.134;-8.548;2022-12-17T07:50:24;101570.2;;;13.6;84.2
72124;BME280;63818;37.134;-8.548;2022-12-17T07:55:12;101588.0;;;13.6;84.1
72124;BME280;63818;37.134;-8.548;2022-12-17T08:00:01;101577.5;;;13.6;84.0
72124;BME280;63818;37.134;-8.548;2022-12-17T08:04:49;101580.8;;;13.6;83.9
72124;BME280;63818;37.134;-8.548;2022-12-17T08:09:44;101580.6;;;13.6;83.8
72124;BME280;63818;37.134;-8.548;2022-12-17T08:14:33;101590.8;;;13.6;84.2
72124;BME280;63818;37.134;-8.548;2022-12-17T08:19:21;101594.1;;;13.6;84.2
72124;BME280;63818;37.134;-8.548;2022-12-17T08:24:10;101597.8;;;13.6;84.3
72124;BME280;63818;37.134;-8.548;2022-12-17T08:28:58;101594.1;;;13.6;84.1
72124;BME280;63818;37.134;-8.548;2022-12-17T08:33:48;101592.2;;;13.7;84.1
72124;BME280;63818;37.134;-8.548;2022-12-17T08:38:39;101596.9;;;13.7;83.9
72124;BME280;63818;37.134;-8.548;2022-12-17T08:43:29;101607.4;;;13.8;84.2
72124;BME280;63818;37.134;-8.548;2022-12-17T08:48:18;101610.3;;;13.8;84.3
72124;BME280;63818;37.134;-8.548;2022-12-17T08:53:14;101613.2;;;13.8;84.5
72124;BME280;63818;37.134;-8.548;2022-12-17T08:58:02;101621.5;;;13.9;84.9
72124;BME280;63818;37.134;-8.548;2022-12-17T09:02:54;101629.5;;;13.9;85.4
72124;BME280;63818;37.134;-8.548;2022-12-17T09:07:43;101637.9;;;13.9;85.2
72124;BME280;63818;37.134;-8.548;2022-12-17T09:12:35;101640.0;;;13.9;85.4
72124;BME280;63818;37.134;-8.548;2022-12-17T09:17:23;101654.8;;;13.9;86.0
72124;BME280;63818;37.134;-8.548;2022-12-17T09:22:14;101662.0;;;14.0;86.1
72124;BME280;63818;37.134;-8.548;2022-12-17T09:27:05;101673.2;;;14.0;86.3
72124;BME280;63818;37.134;-8.548;2022-12-17T09:31:53;101679.7;;;14.0;86.6
72124;BME280;63818;37.134;-8.548;2022-12-17T09:36:42;101690.5;;;14.1;86.7
72124;BME280;63818;37.134;-8.548;2022-12-17T09:41:42;101706.0;;;14.1;87.1
72124;BME280;63818;37.134;-8.548;2022-12-17T09:46:36;101701.8;;;14.2;87.6
72124;BME280;63818;37.134;-8.548;2022-12-17T09:51:28;101709.5;;;14.2;87.6
72124;BME280;63818;37.134;-8.548;2022-12-17T09:56:20;101718.9;;;14.2;87.7
72124;BME280;63818;37.134;-8.548;2022-12-17T10:01:15;101715.1;;;14.3;88.2
72124;BME280;63818;37.134;-8.548;2022-12-17T10:06:08;101722.5;;;14.3;88.6
72124;BME280;63818;37.134;-8.548;2022-12-17T10:11:00;101732.7;;;14.4;88.5
72124;BME280;63818;37.134;-8.548;2022-12-17T10:15:53;101731.6;;;14.4;88.7
72124;BME280;63818;37.134;-8.548;2022-12-17T10:20:45;101742.3;;;14.4;88.5
72124;BME280;63818;37.134;-8.548;2022-12-17T10:25:37;101734.7;;;14.4;88.7
72124;BME280;63818;37.134;-8.548;2022-12-17T10:30:27;101743.7;;;14.5;89.3
72124;BME280;63818;37.134;-8.548;2022-12-17T10:35:23;101758.9;;;14.5;89.2
72124;BME280;63818;37.134;-8.548;2022-12-17T10:40:19;101759.0;;;14.5;89.7
72124;BME280;63818;37.134;-8.548;2022-12-17T10:45:22;101755.4;;;14.6;90.0
72124;BME280;63818;37.134;-8.548;2022-12-17T10:50:13;101754.2;;;14.6;90.1
72124;BME280;63818;37.134;-8.548;2022-12-17T10:55:03;101749.2;;;14.7;90.1
72124;BME280;63818;37.134;-8.548;2022-12-17T10:59:53;101758.0;;;14.7;90.1
72124;BME280;63818;37.134;-8.548;2022-12-17T11:04:51;101755.0;;;14.7;89.6
72124;BME280;63818;37.134;-8.548;2022-12-17T11:09:43;101748.5;;;14.8;88.6
72124;BME280;63818;37.134;-8.548;2022-12-17T11:14:47;101737.6;;;14.8;87.8
72124;BME280;63818;37.134;-8.548;2022-12-17T11:19:43;101730.6;;;14.9;87.4
72124;BME280;63818;37.134;-8.548;2022-12-17T11:24:38;101722.5;;;15.0;86.9
72124;BME280;63818;37.134;-8.548;2022-12-17T11:29:29;101709.8;;;15.0;86.3
72124;BME280;63818;37.134;-8.548;2022-12-17T11:34:21;101701.4;;;15.0;85.9
72124;BME280;63818;37.134;-8.548;2022-12-17T11:39:16;101699.5;;;15.0;85.3
72124;BME280;63818;37.134;-8.548;2022-12-17T11:44:15;101694.5;;;15.0;84.6
72124;BME280;63818;37.134;-8.548;2022-12-17T11:49:18;101698.4;;;15.1;85.1
72124;BME280;63818;37.134;-8.548;2022-12-17T11:54:16;101684.4;;;15.1;85.5
72124;BME280;63818;37.134;-8.548;2022-12-17T11:59:19;101675.0;;;15.1;85.4
72124;BME280;63818;37.134;-8.548;2022-12-17T12:04:16;101662.9;;;15.1;85.1
72124;BME280;63818;37.134;-8.548;2022-12-17T12:09:14;101672.6;;;15.1;84.7
72124;BME280;63818;37.134;-8.548;2022-12-17T12:14:10;101669.7;;;15.2;85.0
72124;BME280;63818;37.134;-8.548;2022-12-17T12:19:15;101661.3;;;15.3;84.9
72124;BME280;63818;37.134;-8.548;2022-12-17T12:24:15;101650.2;;;15.3;84.5
72124;BME280;63818;37.134;-8.548;2022-12-17T12:29:11;101645.4;;;15.2;84.3
72124;BME280;63818;37.134;-8.548;2022-12-17T12:34:13;101645.6;;;15.3;84.3
72124;BME280;63818;37.134;-8.548;2022-12-17T12:39:09;101639.0;;;15.4;84.6
72124;BME280;63818;37.134;-8.548;2022-12-17T12:44:04;101635.9;;;15.4;84.2
72124;BME280;63818;37.134;-8.548;2022-12-17T12:48:56;101632.2;;;15.4;84.7
72124;BME280;63818;37.134;-8.548;2022-12-17T12:53:57;101622.5;;;15.4;84.3
72124;BME280;63818;37.134;-8.548;2022-12-17T12:58:47;101626.3;;;15.5;84.3
72124;BME280;63818;37.134;-8.548;2022-12-17T13:03:37;101632.1;;;15.5;84.8
72124;BME280;63818;37.134;-8.548;2022-12-17T13:08:27;101629.5;;;15.6;85.2
72124;BME280;63818;37.134;-8.548;2022-12-17T13:13:23;101636.1;;;15.6;85.8
72124;BME280;63818;37.134;-8.548;2022-12-17T13:18:26;101637.2;;;15.7;86.2
72124;BME280;63818;37.134;-8.548;2022-12-17T13:23:28;101633.2;;;15.8;86.4
72124;BME280;63818;37.134;-8.548;2022-12-17T13:28:28;101634.1;;;15.9;86.6
72124;BME280;63818;37.134;-8.548;2022-12-17T13:33:23;101626.2;;;15.9;86.2
72124;BME280;63818;37.134;-8.548;2022-12-17T13:38:20;101627.7;;;16.0;85.7
72124;BME280;63818;37.134;-8.548;2022-12-17T13:43:17;101623.6;;;16.1;84.6
72124;BME280;63818;37.134;-8.548;2022-12-17T13:48:20;101622.9;;;16.3;83.7
72124;BME280;63818;37.134;-8.548;2022-12-17T13:53:10;101625.3;;;16.4;82.5
72124;BME280;63818;37.134;-8.548;2022-12-17T13:57:59;101619.1;;;16.6;81.6
72124;BME280;63818;37.134;-8.548;2022-12-17T14:02:55;101615.8;;;16.9;79.9
72124;BME280;63818;37.134;-8.548;2022-12-17T14:07:44;101614.6;;;17.4;77.2
72124;BME280;63818;37.134;-8.548;2022-12-17T14:12:33;101597.2;;;17.7;74.6
72124;BME280;63818;37.134;-8.548;2022-12-17T14:17:25;101588.3;;;18.7;70.7
72124;BME280;63818;37.134;-8.548;2022-12-17T14:22:21;101579.1;;;20.0;67.0
72124;BME280;63818;37.134;-8.548;2022-12-17T14:27:22;101556.2;;;21.1;61.6
72124;BME280;63818;37.134;-8.548;2022-12-17T14:32:23;101548.4;;;21.9;57.2
72124;BME280;63818;37.134;-8.548;2022-12-17T14:37:16;101549.7;;;22.2;56.0
72124;BME280;63818;37.134;-8.548;2022-12-17T14:42:17;101559.5;;;22.7;55.3
72124;BME280;63818;37.134;-8.548;2022-12-17T14:47:14;101553.8;;;23.5;54.0
72124;BME280;63818;37.134;-8.548;2022-12-17T14:52:12;101547.7;;;24.4;51.8
72124;BME280;63818;37.134;-8.548;2022-12-17T14:57:05;101554.0;;;25.1;49.6
72124;BME280;63818;37.134;-8.548;2022-12-17T15:02:00;101559.6;;;25.1;48.3
72124;BME280;63818;37.134;-8.548;2022-12-17T15:06:52;101563.1;;;25.1;48.9
72124;BME280;63818;37.134;-8.548;2022-12-17T15:11:41;101570.5;;;25.1;48.2
72124;BME280;63818;37.134;-8.548;2022-12-17T15:16:35;101572.1;;;25.0;48.8
72124;BME280;63818;37.134;-8.548;2022-12-17T15:21:24;101566.2;;;24.5;49.5
72124;BME280;63818;37.134;-8.548;2022-12-17T15:26:12;101584.5;;;23.5;51.5
72124;BME280;63818;37.134;-8.548;2022-12-17T15:31:03;101604.1;;;22.5;54.0
72124;BME280;63818;37.134;-8.548;2022-12-17T15:35:56;101611.9;;;21.6;56.5
72124;BME280;63818;37.134;-8.548;2022-12-17T15:40:46;101625.0;;;20.5;59.5
72124;BME280;63818;37.134;-8.548;2022-12-17T15:45:35;101635.5;;;20.5;61.4
72124;BME280;63818;37.134;-8.548;2022-12-17T15:50:23;101625.9;;;20.4;62.0
72124;BME280;63818;37.134;-8.548;2022-12-17T15:55:12;101642.0;;;20.2;62.6
72124;BME280;63818;37.134;-8.548;2022-12-17T16:00:01;101637.2;;;19.9;62.5
72124;BME280;63818;37.134;-8.548;2022-12-17T16:04:57;101650.5;;;19.4;63.6
72124;BME280;63818;37.134;-8.548;2022-12-17T16:09:46;101657.4;;;18.9;64.7
72124;BME280;63818;37.134;-8.548;2022-12-17T16:14:37;101665.8;;;18.5;64.8
72124;BME280;63818;37.134;-8.548;2022-12-17T16:19:26;101681.7;;;18.3;68.8
72124;BME280;63818;37.134;-8.548;2022-12-17T16:24:15;101697.9;;;18.2;70.6
72124;BME280;63818;37.134;-8.548;2022-12-17T16:29:03;101701.2;;;18.0;71.6
72124;BME280;63818;37.134;-8.548;2022-12-17T16:33:52;101710.1;;;17.9;72.7
72124;BME280;63818;37.134;-8.548;2022-12-17T16:38:43;101719.8;;;17.8;73.7
72124;BME280;63818;37.134;-8.548;2022-12-17T16:43:33;101706.3;;;17.7;74.6
72124;BME280;63818;37.134;-8.548;2022-12-17T16:48:22;101727.9;;;17.7;75.4
72124;BME280;63818;37.134;-8.548;2022-12-17T16:53:11;101723.3;;;17.6;75.8
72124;BME280;63818;37.134;-8.548;2022-12-17T16:58:00;101726.0;;;17.6;76.8
72124;BME280;63818;37.134;-8.548;2022-12-17T17:02:50;101727.3;;;17.5;77.3
72124;BME280;63818;37.134;-8.548;2022-12-17T17:07:39;101728.8;;;17.5;77.7
72124;BME280;63818;37.134;-8.548;2022-12-17T17:12:27;101737.8;;;17.4;77.8
72124;BME280;63818;37.134;-8.548;2022-12-17T17:17:16;101742.1;;;17.3;78.1
72124;BME280;63818;37.134;-8.548;2022-12-17T17:22:04;101740.4;;;17.3;78.6
72124;BME280;63818;37.134;-8.548;2022-12-17T17:26:53;101751.2;;;17.3;79.0
72124;BME280;63818;37.134;-8.548;2022-12-17T17:31:45;101746.0;;;17.2;79.3
72124;BME280;63818;37.134;-8.548;2022-12-17T17:36:33;101742.0;;;17.2;79.5
72124;BME280;63818;37.134;-8.548;2022-12-17T17:41:24;101752.7;;;17.2;79.7
72124;BME280;63818;37.134;-8.548;2022-12-17T17:46:20;101751.8;;;17.1;79.8
72124;BME280;63818;37.134;-8.548;2022-12-17T17:51:10;101757.5;;;17.1;80.0
72124;BME280;63818;37.134;-8.548;2022-12-17T17:56:06;101758.2;;;17.1;80.6
72124;BME280;63818;37.134;-8.548;2022-12-17T18:00:55;101759.2;;;17.0;80.5
72124;BME280;63818;37.134;-8.548;2022-12-17T18:05:44;101768.8;;;17.0;80.6
72124;BME280;63818;37.134;-8.548;2022-12-17T18:10:32;101784.6;;;17.0;80.9
72124;BME280;63818;37.134;-8.548;2022-12-17T18:15:21;101779.5;;;17.0;81.0
72124;BME280;63818;37.134;-8.548;2022-12-17T18:20:10;101783.6;;;17.0;81.1
72124;BME280;63818;37.134;-8.548;2022-12-17T18:24:59;101789.7;;;16.9;81.3
72124;BME280;63818;37.134;-8.548;2022-12-17T18:29:50;101785.6;;;16.8;81.6
72124;BME280;63818;37.134;-8.548;2022-12-17T18:34:38;101814.5;;;16.8;81.9
72124;BME280;63818;37.134;-8.548;2022-12-17T18:39:26;101819.4;;;16.8;82.1
72124;BME280;63818;37.134;-8.548;2022-12-17T18:44:16;101824.9;;;16.8;82.1
72124;BME280;63818;37.134;-8.548;2022-12-17T18:49:07;101836.9;;;16.7;82.2
72124;BME280;63818;37.134;-8.548;2022-12-17T18:53:57;101844.7;;;16.6;82.7
72124;BME280;63818;37.134;-8.548;2022-12-17T18:58:46;101849.4;;;16.6;83.0
72124;BME280;63818;37.134;-8.548;2022-12-17T19:03:35;101847.0;;;16.6;82.9
72124;BME280;63818;37.134;-8.548;2022-12-17T19:08:24;101856.6;;;16.5;83.5
72124;BME280;63818;37.134;-8.548;2022-12-17T19:13:13;101860.5;;;16.5;83.7
72124;BME280;63818;37.134;-8.548;2022-12-17T19:18:02;101872.7;;;16.5;84.3
72124;BME280;63818;37.134;-8.548;2022-12-17T19:22:56;101885.5;;;16.5;84.1
72124;BME280;63818;37.134;-8.548;2022-12-17T19:27:45;101879.9;;;16.5;83.9
72124;BME280;63818;37.134;-8.548;2022-12-17T19:32:36;101888.2;;;16.4;84.2
72124;BME280;63818;37.134;-8.548;2022-12-17T19:37:27;101905.1;;;16.4;84.0
72124;BME280;63818;37.134;-8.548;2022-12-17T19:42:15;101911.7;;;16.4;83.9
72124;BME280;63818;37.134;-8.548;2022-12-17T19:47:03;101923.3;;;16.3;83.6
72124;BME280;63818;37.134;-8.548;2022-12-17T19:51:55;101942.6;;;16.3;84.0
72124;BME280;63818;37.134;-8.548;2022-12-17T19:56:44;101943.2;;;16.2;83.6
72124;BME280;63818;37.134;-8.548;2022-12-17T20:01:40;101963.1;;;16.2;84.0
72124;BME280;63818;37.134;-8.548;2022-12-17T20:06:32;101966.3;;;16.2;83.9
72124;BME280;63818;37.134;-8.548;2022-12-17T20:11:21;101967.8;;;16.2;83.9
72124;BME280;63818;37.134;-8.548;2022-12-17T20:16:09;101972.7;;;16.2;83.5
72124;BME280;63818;37.134;-8.548;2022-12-17T20:21:05;101979.4;;;16.1;83.3
72124;BME280;63818;37.134;-8.548;2022-12-17T20:26:04;101994.6;;;16.1;83.2
72124;BME280;63818;37.134;-8.548;2022-12-17T20:30:58;101992.9;;;16.0;83.0
72124;BME280;63818;37.134;-8.548;2022-12-17T20:35:47;101987.5;;;15.9;82.8
72124;BME280;63818;37.134;-8.548;2022-12-17T20:40:39;101996.8;;;15.9;82.6
72124;BME280;63818;37.134;-8.548;2022-12-17T20:45:28;102000.3;;;15.8;82.8
72124;BME280;63818;37.134;-8.548;2022-12-17T20:50:16;102009.7;;;15.8;82.8
72124;BME280;63818;37.134;-8.548;2022-12-17T20:55:05;102005.7;;;15.8;82.8
72124;BME280;63818;37.134;-8.548;2022-12-17T20:59:54;102007.8;;;15.8;82.7
72124;BME280;63818;37.134;-8.548;2022-12-17T21:04:43;102009.0;;;15.7;82.9
72124;BME280;63818;37.134;-8.548;2022-12-17T21:09:31;102016.3;;;15.6;83.0
72124;BME280;63818;37.134;-8.548;2022-12-17T21:14:20;102014.1;;;15.5;83.1
72124;BME280;63818;37.134;-8.548;2022-12-17T21:19:12;102017.9;;;15.5;83.1
72124;BME280;63818;37.134;-8.548;2022-12-17T21:24:02;102017.4;;;15.4;83.1
72124;BME280;63818;37.134;-8.548;2022-12-17T21:28:54;102019.8;;;15.4;83.3
72124;BME280;63818;37.134;-8.548;2022-12-17T21:33:49;102025.4;;;15.4;83.7
72124;BME280;63818;37.134;-8.548;2022-12-17T21:38:41;102017.0;;;15.4;83.4
72124;BME280;63818;37.134;-8.548;2022-12-17T21:43:30;102021.2;;;15.4;82.7
72124;BME280;63818;37.134;-8.548;2022-12-17T21:48:19;102021.8;;;15.3;82.4
72124;BME280;63818;37.134;-8.548;2022-12-17T21:53:08;102018.6;;;15.3;82.0
72124;BME280;63818;37.134;-8.548;2022-12-17T21:57:59;102009.8;;;15.2;81.8
72124;BME280;63818;37.134;-8.548;2022-12-17T22:02:48;102013.4;;;15.2;81.8
72124;BME280;63818;37.134;-8.548;2022-12-17T22:07:39;102006.7;;;15.2;82.1
72124;BME280;63818;37.134;-8.548;2022-12-17T22:12:28;102000.8;;;15.2;82.4
72124;BME280;63818;37.134;-8.548;2022-12-17T22:17:18;102003.0;;;15.1;82.4
72124;BME280;63818;37.134;-8.548;2022-12-17T22:22:09;102007.0;;;15.2;82.0
72124;BME280;63818;37.134;-8.548;2022-12-17T22:26:58;102005.2;;;15.1;81.8
72124;BME280;63818;37.134;-8.548;2022-12-17T22:31:46;101998.2;;;15.1;81.7
72124;BME280;63818;37.134;-8.548;2022-12-17T22:36:35;101995.0;;;15.1;81.5
72124;BME280;63818;37.134;-8.548;2022-12-17T22:41:23;101999.4;;;15.1;81.6
72124;BME280;63818;37.134;-8.548;2022-12-17T22:46:12;101992.9;;;15.1;81.6
72124;BME280;63818;37.134;-8.548;2022-12-17T22:51:09;101996.5;;;15.0;81.1
72124;BME280;63818;37.134;-8.548;2022-12-17T22:56:05;101990.0;;;15.0;81.5
72124;BME280;63818;37.134;-8.548;2022-12-17T23:00:56;101992.2;;;15.0;81.3
72124;BME280;63818;37.134;-8.548;2022-12-17T23:05:46;101995.5;;;15.0;81.5
72124;BME280;63818;37.134;-8.548;2022-12-17T23:10:37;101994.8;;;14.9;81.4
72124;BME280;63818;37.134;-8.548;2022-12-17T23:15:28;102005.2;;;14.9;81.5
72124;BME280;63818;37.134;-8.548;2022-12-17T23:20:20;102003.1;;;14.9;81.6
72124;BME280;63818;37.134;-8.548;2022-12-17T23:25:12;102001.4;;;14.8;81.7
72124;BME280;63818;37.134;-8.548;2022-12-17T23:30:02;101996.3;;;14.8;81.8
72124;BME280;63818;37.134;-8.548;2022-12-17T23:34:51;101998.5;;;14.7;81.9
72124;BME280;63818;37.134;-8.548;2022-12-17T23:39:39;101993.0;;;14.6;81.9
72124;BME280;63818;37.134;-8.548;2022-12-17T23:44:28;101989.9;;;14.6;82.4
72124;BME280;63818;37.134;-8.548;2022-12-17T23:49:19;101984.0;;;14.6;82.4
72124;BME280;63818;37.134;-8.548;2022-12-17T23:58:59;101991.8;;;14.6;82.7
